createdAt,value
2022-08-26T00:00:42.205Z,21.41
2022-08-26T00:03:45.295Z,21.46
2022-08-26T00:06:50.711Z,21.55
2022-08-26T00:09:56.878Z,21.62
2022-08-26T00:13:00.272Z,21.61
2022-08-26T00:16:05.483Z,21.68
2022-08-26T00:19:12.600Z,21.62
2022-08-26T00:22:21.503Z,21.59
2022-08-26T00:25:27.908Z,21.52
2022-08-26T00:28:33.349Z,21.50
2022-08-26T00:31:36.292Z,21.51
2022-08-26T00:34:40.070Z,21.46
2022-08-26T00:37:47.714Z,21.49
2022-08-26T00:40:54.144Z,21.44
2022-08-26T00:43:57.425Z,21.41
2022-08-26T00:47:05.733Z,21.38
2022-08-26T00:50:14.800Z,21.32
2022-08-26T00:53:24.011Z,21.26
2022-08-26T00:56:38.000Z,21.19
2022-08-26T00:59:42.367Z,21.13
2022-08-26T01:02:47.951Z,21.06
2022-08-26T01:05:57.232Z,21.00
2022-08-26T01:09:00.401Z,20.93
2022-08-26T01:12:03.929Z,20.86
2022-08-26T01:15:10.443Z,20.85
2022-08-26T01:18:15.145Z,20.81
2022-08-26T01:21:30.299Z,20.81
2022-08-26T01:24:33.135Z,20.76
2022-08-26T01:27:38.795Z,20.76
2022-08-26T01:30:44.190Z,20.73
2022-08-26T01:34:02.171Z,20.71
2022-08-26T01:37:13.691Z,20.67
2022-08-26T01:40:25.691Z,20.62
2022-08-26T01:43:31.553Z,20.63
2022-08-26T01:46:34.728Z,20.60
2022-08-26T01:49:43.816Z,20.56
2022-08-26T01:52:54.371Z,20.50
2022-08-26T01:56:02.424Z,20.48
2022-08-26T01:59:16.486Z,20.50
2022-08-26T02:02:21.157Z,20.43
2022-08-26T02:05:58.483Z,20.38
2022-08-26T02:09:02.429Z,20.37
2022-08-26T02:12:06.079Z,20.32
2022-08-26T02:15:13.720Z,20.28
2022-08-26T02:18:17.097Z,20.24
2022-08-26T02:21:22.227Z,20.21
2022-08-26T02:24:55.161Z,20.20
2022-08-26T02:27:58.205Z,20.18
2022-08-26T02:31:02.660Z,20.14
2022-08-26T02:34:15.587Z,20.10
2022-08-26T02:37:19.175Z,20.09
2022-08-26T02:40:31.150Z,20.08
2022-08-26T02:43:34.323Z,20.05
2022-08-26T02:46:38.171Z,20.02
2022-08-26T02:50:06.363Z,20.00
2022-08-26T02:53:10.423Z,19.94
2022-08-26T02:56:13.994Z,19.90
2022-08-26T02:59:19.061Z,19.90
2022-08-26T03:02:22.334Z,19.84
2022-08-26T03:05:25.494Z,19.83
2022-08-26T03:08:28.585Z,19.80
2022-08-26T03:11:33.223Z,19.85
2022-08-26T03:14:36.399Z,19.80
2022-08-26T03:17:39.683Z,19.79
2022-08-26T03:20:43.127Z,19.80
2022-08-26T03:23:47.031Z,19.90
2022-08-26T03:26:52.962Z,19.90
2022-08-26T03:30:16.936Z,19.93
2022-08-26T03:33:22.899Z,19.90
2022-08-26T03:36:28.699Z,19.85
2022-08-26T03:39:32.622Z,19.79
2022-08-26T03:42:36.836Z,19.75
2022-08-26T03:45:40.761Z,19.69
2022-08-26T03:48:46.339Z,19.67
2022-08-26T03:51:51.941Z,19.65
2022-08-26T03:54:54.649Z,19.62
2022-08-26T03:57:58.099Z,19.63
2022-08-26T04:01:00.626Z,19.53
2022-08-26T04:04:06.797Z,19.51
2022-08-26T04:07:12.475Z,19.48
2022-08-26T04:10:20.070Z,19.47
2022-08-26T04:13:25.678Z,19.45
2022-08-26T04:16:29.549Z,19.46
2022-08-26T04:19:33.095Z,19.49
2022-08-26T04:22:36.572Z,19.50
2022-08-26T04:25:40.568Z,19.53
2022-08-26T04:28:43.559Z,19.57
2022-08-26T04:31:50.053Z,19.60
2022-08-26T04:35:00.834Z,19.69
2022-08-26T04:38:05.879Z,19.81
2022-08-26T04:41:14.878Z,19.89
2022-08-26T04:44:20.759Z,19.96
2022-08-26T04:47:28.062Z,20.09
2022-08-26T04:50:35.060Z,20.16
2022-08-26T04:53:38.711Z,20.24
2022-08-26T04:56:47.599Z,20.33
2022-08-26T04:59:51.164Z,20.46
2022-08-26T05:02:56.430Z,20.55
2022-08-26T05:06:05.274Z,20.62
2022-08-26T05:09:08.017Z,20.71
2022-08-26T05:12:31.502Z,20.83
2022-08-26T05:15:35.901Z,20.95
2022-08-26T05:18:43.606Z,21.11
2022-08-26T05:21:48.489Z,21.24
2022-08-26T05:24:51.270Z,21.39
2022-08-26T05:27:53.930Z,21.54
2022-08-26T05:30:59.904Z,21.72
2022-08-26T05:34:04.789Z,21.82
2022-08-26T05:37:07.879Z,21.96
2022-08-26T05:40:13.770Z,22.16
2022-08-26T05:43:17.239Z,22.27
2022-08-26T05:46:23.644Z,22.37
2022-08-26T05:49:29.851Z,22.54
2022-08-26T05:52:33.907Z,22.64
2022-08-26T05:56:04.524Z,22.72
2022-08-26T05:59:11.665Z,22.85
2022-08-26T06:02:17.635Z,23.00
2022-08-26T06:05:30.253Z,23.11
2022-08-26T06:08:35.136Z,23.24
2022-08-26T06:11:39.330Z,23.31
2022-08-26T06:14:42.799Z,23.47
2022-08-26T06:17:49.251Z,23.63
2022-08-26T06:20:56.889Z,23.73
2022-08-26T06:24:26.941Z,23.83
2022-08-26T06:27:32.982Z,24.02
2022-08-26T06:30:40.731Z,24.13
2022-08-26T06:33:44.976Z,24.29
2022-08-26T06:37:09.064Z,24.46
2022-08-26T06:40:47.731Z,24.59
2022-08-26T06:44:13.599Z,24.78
2022-08-26T06:47:47.720Z,24.90
2022-08-26T06:51:35.658Z,25.14
2022-08-26T06:55:03.474Z,25.28
2022-08-26T06:58:14.563Z,25.41
2022-08-26T07:01:28.644Z,25.52
2022-08-26T07:04:33.756Z,25.76
2022-08-26T07:07:38.789Z,25.91
2022-08-26T07:10:43.207Z,26.15
2022-08-26T07:13:50.572Z,26.14
2022-08-26T07:17:12.175Z,26.29
2022-08-26T07:20:22.775Z,26.41
2022-08-26T07:23:39.350Z,26.50
2022-08-26T07:26:43.873Z,26.70
2022-08-26T07:29:48.698Z,26.80
2022-08-26T07:32:59.203Z,27.07
2022-08-26T07:36:05.852Z,27.23
2022-08-26T07:39:51.681Z,27.50
2022-08-26T07:43:17.958Z,27.78
2022-08-26T07:46:53.557Z,28.00
2022-08-26T07:50:49.141Z,28.36
2022-08-26T07:54:26.882Z,28.60
2022-08-26T07:57:53.357Z,28.76
2022-08-26T08:01:40.351Z,29.02
2022-08-26T08:05:27.310Z,29.27
2022-08-26T08:08:42.571Z,29.72
2022-08-26T08:11:46.751Z,29.95
2022-08-26T08:14:53.162Z,30.42
2022-08-26T08:18:01.271Z,30.37
2022-08-26T08:21:21.250Z,31.19
2022-08-26T08:24:27.660Z,31.57
2022-08-26T08:27:34.172Z,31.55
2022-08-26T08:30:40.754Z,32.08
2022-08-26T08:33:43.620Z,32.25
2022-08-26T08:36:50.411Z,32.35
2022-08-26T08:39:58.968Z,32.90
2022-08-26T08:43:15.504Z,33.14
2022-08-26T08:46:19.653Z,33.86
2022-08-26T08:49:26.166Z,34.14
2022-08-26T08:52:37.065Z,34.27
2022-08-26T08:56:14.711Z,34.23
2022-08-26T08:59:20.447Z,34.88
2022-08-26T09:02:35.932Z,34.85
2022-08-26T09:05:48.722Z,34.87
2022-08-26T09:09:38.391Z,35.41
2022-08-26T09:12:46.235Z,35.84
2022-08-26T09:15:59.417Z,36.34
2022-08-26T09:19:20.267Z,36.66
2022-08-26T09:22:36.267Z,36.80
2022-08-26T09:29:04.957Z,36.09
2022-08-26T09:32:21.357Z,35.89
2022-08-26T09:35:28.951Z,36.66
2022-08-26T09:38:46.679Z,37.00
2022-08-26T09:42:26.296Z,37.29
2022-08-26T09:45:29.931Z,37.01
2022-08-26T09:48:40.558Z,38.05
2022-08-26T09:51:44.602Z,37.40
2022-08-26T09:55:14.045Z,37.72
2022-08-26T09:58:39.583Z,37.68
2022-08-26T10:01:45.524Z,37.48
2022-08-26T10:04:57.589Z,38.43
2022-08-26T10:08:20.563Z,38.97
2022-08-26T10:11:32.015Z,38.68
2022-08-26T10:14:48.043Z,38.93
2022-08-26T10:18:06.743Z,38.74
2022-08-26T10:21:23.845Z,38.99
2022-08-26T10:24:46.376Z,38.43
2022-08-26T10:28:00.990Z,38.45
2022-08-26T10:31:16.125Z,38.36
2022-08-26T10:34:21.144Z,39.50
2022-08-26T10:37:33.686Z,39.52
2022-08-26T10:40:55.109Z,39.15
2022-08-26T10:44:22.074Z,39.71
2022-08-26T10:47:45.186Z,39.87
2022-08-26T10:51:03.299Z,40.07
2022-08-26T10:54:15.758Z,40.56
2022-08-26T10:57:33.742Z,40.17
2022-08-26T11:01:10.514Z,39.76
2022-08-26T11:04:42.362Z,39.44
2022-08-26T11:07:56.229Z,39.53
2022-08-26T11:11:03.063Z,40.08
2022-08-26T11:14:28.376Z,38.06
2022-08-26T11:17:57.950Z,38.21
2022-08-26T11:21:44.255Z,38.94
2022-08-26T11:24:53.858Z,40.06
2022-08-26T11:28:08.656Z,39.91
2022-08-26T11:31:26.061Z,40.58
2022-08-26T11:34:53.298Z,38.68
2022-08-26T11:38:04.245Z,40.34
2022-08-26T11:41:17.657Z,41.64
2022-08-26T11:44:27.566Z,41.56
2022-08-26T11:47:32.075Z,39.90
2022-08-26T11:50:35.216Z,40.34
2022-08-26T11:53:47.207Z,40.10
2022-08-26T11:56:54.855Z,40.89
2022-08-26T11:59:57.899Z,41.63
2022-08-26T12:03:07.308Z,40.36
2022-08-26T12:06:22.275Z,41.42
2022-08-26T12:09:33.086Z,41.38
2022-08-26T12:13:05.699Z,41.90
2022-08-26T12:16:08.902Z,42.01
2022-08-26T12:19:27.479Z,41.57
2022-08-26T12:22:38.433Z,41.61
2022-08-26T12:25:43.281Z,41.82
2022-08-26T12:29:19.998Z,41.92
2022-08-26T12:32:29.238Z,40.78
2022-08-26T12:35:37.023Z,40.24
2022-08-26T12:38:41.356Z,39.28
2022-08-26T12:41:51.325Z,37.87
2022-08-26T12:45:08.585Z,37.44
2022-08-26T12:48:38.707Z,37.12
2022-08-26T12:52:02.548Z,36.73
2022-08-26T12:55:25.843Z,35.92
2022-08-26T12:58:40.458Z,35.34
2022-08-26T13:01:47.202Z,35.34
2022-08-26T13:05:00.732Z,34.66
2022-08-26T13:08:26.690Z,34.82
2022-08-26T13:11:35.523Z,34.83
2022-08-26T13:14:40.603Z,34.68
2022-08-26T13:17:43.593Z,34.36
2022-08-26T13:20:48.712Z,34.41
2022-08-26T13:23:57.089Z,34.47
2022-08-26T13:27:24.520Z,34.53
2022-08-26T13:30:37.048Z,34.31
2022-08-26T13:33:45.504Z,34.46
2022-08-26T13:37:08.512Z,34.35
2022-08-26T13:40:13.393Z,34.16
2022-08-26T13:43:28.439Z,34.08
2022-08-26T13:46:35.359Z,34.01
2022-08-26T13:49:51.891Z,33.94
2022-08-26T13:53:02.257Z,34.07
2022-08-26T13:56:46.247Z,34.00
2022-08-26T14:00:02.422Z,33.94
2022-08-26T14:03:24.899Z,33.90
2022-08-26T14:06:35.017Z,33.88
2022-08-26T14:09:50.276Z,33.84
2022-08-26T14:12:54.069Z,33.40
2022-08-26T14:20:32.941Z,33.67
2022-08-26T14:23:37.936Z,33.68
2022-08-26T14:26:48.736Z,33.77
2022-08-26T14:29:57.774Z,33.65
2022-08-26T14:33:24.386Z,33.69
2022-08-26T14:36:42.284Z,33.64
2022-08-26T14:39:52.178Z,33.62
2022-08-26T14:42:58.681Z,33.58
2022-08-26T14:46:32.375Z,33.51
2022-08-26T14:49:39.276Z,33.53
2022-08-26T14:53:04.799Z,33.42
2022-08-26T14:56:30.953Z,33.55
2022-08-26T15:00:01.458Z,33.58
2022-08-26T15:06:38.235Z,33.54
2022-08-26T15:09:56.707Z,33.56
2022-08-26T15:13:11.363Z,33.45
2022-08-26T15:16:39.244Z,33.51
2022-08-26T15:20:09.775Z,33.31
2022-08-26T15:23:36.722Z,33.43
2022-08-26T15:27:02.793Z,33.36
2022-08-26T15:30:19.361Z,33.26
2022-08-26T15:33:45.861Z,33.30
2022-08-26T15:37:24.731Z,33.12
2022-08-26T15:40:51.905Z,32.95
2022-08-26T15:44:12.980Z,32.91
2022-08-26T15:47:32.416Z,32.76
2022-08-26T15:51:25.565Z,32.75
2022-08-26T15:54:45.964Z,32.66
2022-08-26T15:57:53.564Z,32.46
2022-08-26T16:01:10.892Z,32.32
2022-08-26T16:04:39.949Z,32.25
2022-08-26T16:07:44.644Z,32.03
2022-08-26T16:11:03.347Z,31.91
2022-08-26T16:14:10.579Z,31.84
2022-08-26T16:17:14.948Z,31.78
2022-08-26T16:20:33.981Z,31.59
2022-08-26T16:23:39.114Z,31.46
2022-08-26T16:26:55.167Z,31.35
2022-08-26T16:29:59.316Z,31.21
2022-08-26T16:33:03.029Z,31.05
2022-08-26T16:36:09.178Z,30.92
2022-08-26T16:39:44.897Z,30.72
2022-08-26T16:43:02.931Z,30.50
2022-08-26T16:46:29.833Z,30.28
2022-08-26T16:49:40.677Z,30.09
2022-08-26T16:52:55.580Z,29.94
2022-08-26T16:55:59.239Z,29.83
2022-08-26T16:59:06.343Z,29.77
2022-08-26T17:02:11.926Z,29.69
2022-08-26T17:05:18.977Z,29.65
2022-08-26T17:08:28.688Z,29.56
2022-08-26T17:11:31.881Z,29.48
2022-08-26T17:14:37.978Z,29.42
2022-08-26T17:17:41.603Z,29.32
2022-08-26T17:20:45.651Z,29.12
2022-08-26T17:23:52.622Z,29.17
2022-08-26T17:26:56.276Z,29.09
2022-08-26T17:29:59.576Z,29.02
2022-08-26T17:33:10.891Z,28.90
2022-08-26T17:36:15.842Z,28.71
2022-08-26T17:39:22.380Z,28.61
2022-08-26T17:42:31.521Z,28.47
2022-08-26T17:45:39.417Z,28.38
2022-08-26T17:48:48.852Z,28.18
2022-08-26T17:51:52.087Z,28.12
2022-08-26T17:54:56.443Z,28.02
2022-08-26T17:58:23.330Z,28.02
2022-08-26T18:01:31.929Z,27.89
2022-08-26T18:04:41.802Z,27.81
2022-08-26T18:07:46.755Z,27.66
2022-08-26T18:10:59.368Z,27.45
2022-08-26T18:14:01.922Z,27.24
2022-08-26T18:17:08.435Z,27.07
2022-08-26T18:20:19.609Z,26.90
2022-08-26T18:23:28.689Z,26.74
2022-08-26T18:26:56.248Z,26.56
2022-08-26T18:30:23.391Z,26.39
2022-08-26T18:33:27.537Z,26.25
2022-08-26T18:36:33.956Z,26.09
2022-08-26T18:39:36.950Z,25.92
2022-08-26T18:42:42.277Z,25.77
2022-08-26T18:45:46.558Z,25.65
2022-08-26T18:48:57.086Z,25.49
2022-08-26T18:52:24.928Z,25.39
2022-08-26T18:55:40.377Z,25.26
2022-08-26T18:58:45.778Z,25.14
2022-08-26T19:01:50.748Z,25.03
2022-08-26T19:04:53.762Z,24.96
2022-08-26T19:08:08.533Z,24.87
2022-08-26T19:11:15.621Z,24.79
2022-08-26T19:14:21.059Z,24.73
2022-08-26T19:17:24.149Z,24.67
2022-08-26T19:20:30.285Z,24.58
2022-08-26T19:23:34.256Z,24.48
2022-08-26T19:26:40.747Z,24.40
2022-08-26T19:30:07.221Z,24.31
2022-08-26T19:33:30.436Z,24.19
2022-08-26T19:36:48.356Z,24.14
2022-08-26T19:39:54.350Z,24.06
2022-08-26T19:42:59.953Z,24.01
2022-08-26T19:46:30.703Z,23.94
2022-08-26T19:50:11.744Z,23.86
2022-08-26T19:53:19.820Z,23.83
2022-08-26T19:56:28.421Z,23.80
2022-08-26T19:59:36.336Z,23.72
2022-08-26T20:02:44.276Z,23.72
2022-08-26T20:05:47.778Z,23.67
2022-08-26T20:08:52.120Z,23.61
2022-08-26T20:12:02.532Z,23.61
2022-08-26T20:15:09.977Z,23.53
2022-08-26T20:18:35.819Z,23.51
2022-08-26T20:21:51.058Z,23.43
2022-08-26T20:24:57.318Z,23.36
2022-08-26T20:28:00.924Z,23.32
2022-08-26T20:31:04.716Z,23.25
2022-08-26T20:34:09.769Z,23.22
2022-08-26T20:37:13.204Z,23.22
2022-08-26T20:40:15.993Z,23.21
2022-08-26T20:43:28.683Z,23.22
2022-08-26T20:46:37.845Z,23.17
2022-08-26T20:50:09.835Z,23.12
2022-08-26T20:53:14.601Z,23.11
2022-08-26T20:56:22.585Z,23.12
2022-08-26T20:59:26.177Z,23.08
2022-08-26T21:02:35.394Z,23.01
2022-08-26T21:05:40.544Z,22.95
2022-08-26T21:09:11.406Z,22.93
2022-08-26T21:12:28.893Z,22.84
2022-08-26T21:15:32.030Z,22.80
2022-08-26T21:18:36.951Z,22.72
2022-08-26T21:21:41.102Z,22.66
2022-08-26T21:24:46.715Z,22.60
2022-08-26T21:27:49.499Z,22.57
2022-08-26T21:30:52.355Z,22.58
2022-08-26T21:33:56.791Z,22.59
2022-08-26T21:37:00.532Z,22.57
2022-08-26T21:40:05.421Z,22.62
2022-08-26T21:43:08.334Z,22.67
2022-08-26T21:46:22.604Z,22.68
2022-08-26T21:49:29.637Z,22.68
2022-08-26T21:52:32.568Z,22.68
2022-08-26T21:55:36.370Z,22.71
2022-08-26T21:58:46.651Z,22.69
2022-08-26T22:01:50.407Z,22.66
2022-08-26T22:04:56.443Z,22.60
2022-08-26T22:08:01.302Z,22.56
2022-08-26T22:11:05.291Z,22.48
2022-08-26T22:14:08.719Z,22.43
2022-08-26T22:17:14.235Z,22.41
2022-08-26T22:20:19.219Z,22.37
2022-08-26T22:23:25.258Z,22.31
2022-08-26T22:26:31.198Z,22.30
2022-08-26T22:29:34.481Z,22.23
2022-08-26T22:32:39.617Z,22.22
2022-08-26T22:35:48.704Z,22.14
2022-08-26T22:38:56.304Z,22.05
2022-08-26T22:42:19.477Z,22.01
2022-08-26T22:45:22.824Z,21.93
2022-08-26T22:48:26.876Z,21.90
2022-08-26T22:51:29.996Z,21.88
2022-08-26T22:54:35.107Z,21.92
2022-08-26T22:57:38.181Z,21.86
2022-08-26T23:00:43.361Z,21.87
2022-08-26T23:03:46.629Z,21.79
2022-08-26T23:06:49.842Z,21.69
2022-08-26T23:09:54.586Z,21.64
2022-08-26T23:12:59.992Z,21.56
2022-08-26T23:16:07.346Z,21.51
2022-08-26T23:19:12.867Z,21.48
2022-08-26T23:22:17.908Z,21.40
2022-08-26T23:25:21.572Z,21.34
2022-08-26T23:28:27.876Z,21.30
2022-08-26T23:31:34.030Z,21.21
2022-08-26T23:34:55.660Z,21.21
2022-08-26T23:38:02.281Z,21.25
2022-08-26T23:41:05.861Z,21.17
2022-08-26T23:44:09.094Z,21.11
2022-08-26T23:47:13.704Z,21.06
2022-08-26T23:50:47.662Z,21.05
2022-08-26T23:53:51.172Z,21.00
2022-08-26T23:57:20.076Z,20.94
